sensor_id;sensor_type;location;lat;lon;timestamp;temperature;humidity
27506;DHT22;14939;43.596;1.320;2022-09-17T00:01:05;16.40;49.60
27506;DHT22;14939;43.596;1.320;2022-09-17T00:03:32;16.40;49.40
27506;DHT22;14939;43.596;1.320;2022-09-17T00:06:02;16.40;49.20
27506;DHT22;14939;43.596;1.320;2022-09-17T00:08:29;16.40;49.10
27506;DHT22;14939;43.596;1.320;2022-09-17T00:10:55;16.40;49.10
27506;DHT22;14939;43.596;1.320;2022-09-17T00:13:21;16.30;49.50
27506;DHT22;14939;43.596;1.320;2022-09-17T00:15:47;16.20;49.70
27506;DHT22;14939;43.596;1.320;2022-09-17T00:18:13;16.20;49.80
27506;DHT22;14939;43.596;1.320;2022-09-17T00:20:45;16.20;49.70
27506;DHT22;14939;43.596;1.320;2022-09-17T00:23:11;16.20;49.70
27506;DHT22;14939;43.596;1.320;2022-09-17T00:25:42;16.10;49.80
27506;DHT22;14939;43.596;1.320;2022-09-17T00:28:08;16.00;50.20
27506;DHT22;14939;43.596;1.320;2022-09-17T00:30:34;16.00;50.90
27506;DHT22;14939;43.596;1.320;2022-09-17T00:33:00;15.90;50.60
27506;DHT22;14939;43.596;1.320;2022-09-17T00:35:26;15.80;50.70
27506;DHT22;14939;43.596;1.320;2022-09-17T00:37:52;15.80;50.90
27506;DHT22;14939;43.596;1.320;2022-09-17T00:40:19;15.80;51.20
27506;DHT22;14939;43.596;1.320;2022-09-17T00:42:45;15.80;51.40
27506;DHT22;14939;43.596;1.320;2022-09-17T00:45:11;15.70;51.60
27506;DHT22;14939;43.596;1.320;2022-09-17T00:47:58;15.70;51.90
27506;DHT22;14939;43.596;1.320;2022-09-17T00:53:03;15.60;52.40
27506;DHT22;14939;43.596;1.320;2022-09-17T00:55:30;15.60;52.50
27506;DHT22;14939;43.596;1.320;2022-09-17T00:58:00;15.50;52.80
27506;DHT22;14939;43.596;1.320;2022-09-17T01:00:27;15.50;52.90
27506;DHT22;14939;43.596;1.320;2022-09-17T01:02:53;15.50;53.20
27506;DHT22;14939;43.596;1.320;2022-09-17T01:10:57;15.30;53.80
27506;DHT22;14939;43.596;1.320;2022-09-17T01:22:04;15.20;54.70
27506;DHT22;14939;43.596;1.320;2022-09-17T01:24:47;15.10;54.90
27506;DHT22;14939;43.596;1.320;2022-09-17T01:27:21;15.10;55.10
27506;DHT22;14939;43.596;1.320;2022-09-17T01:30:51;15.00;55.30
27506;DHT22;14939;43.596;1.320;2022-09-17T01:35:48;15.00;55.60
27506;DHT22;14939;43.596;1.320;2022-09-17T01:38:28;15.00;55.90
27506;DHT22;14939;43.596;1.320;2022-09-17T01:41:06;14.90;56.10
27506;DHT22;14939;43.596;1.320;2022-09-17T01:43:37;14.90;56.40
27506;DHT22;14939;43.596;1.320;2022-09-17T01:46:14;14.90;56.80
27506;DHT22;14939;43.596;1.320;2022-09-17T01:48:45;14.90;57.10
27506;DHT22;14939;43.596;1.320;2022-09-17T01:51:19;14.90;57.30
27506;DHT22;14939;43.596;1.320;2022-09-17T01:53:58;15.00;57.50
27506;DHT22;14939;43.596;1.320;2022-09-17T01:56:54;15.00;57.80
27506;DHT22;14939;43.596;1.320;2022-09-17T01:59:33;15.10;58.00
27506;DHT22;14939;43.596;1.320;2022-09-17T02:02:12;15.20;58.40
27506;DHT22;14939;43.596;1.320;2022-09-17T02:04:47;15.20;58.60
27506;DHT22;14939;43.596;1.320;2022-09-17T02:07:19;15.20;59.00
27506;DHT22;14939;43.596;1.320;2022-09-17T02:09:54;15.30;59.30
27506;DHT22;14939;43.596;1.320;2022-09-17T02:12:27;15.30;59.60
27506;DHT22;14939;43.596;1.320;2022-09-17T02:14:56;15.30;60.10
27506;DHT22;14939;43.596;1.320;2022-09-17T02:17:25;15.30;60.20
27506;DHT22;14939;43.596;1.320;2022-09-17T02:19:52;15.30;60.80
27506;DHT22;14939;43.596;1.320;2022-09-17T02:22:31;15.30;61.40
27506;DHT22;14939;43.596;1.320;2022-09-17T02:25:25;15.20;61.90
27506;DHT22;14939;43.596;1.320;2022-09-17T02:28:11;15.20;62.40
27506;DHT22;14939;43.596;1.320;2022-09-17T02:30:38;15.20;62.70
27506;DHT22;14939;43.596;1.320;2022-09-17T02:33:06;15.20;63.20
27506;DHT22;14939;43.596;1.320;2022-09-17T02:35:34;15.30;63.50
27506;DHT22;14939;43.596;1.320;2022-09-17T02:38:01;15.30;63.30
27506;DHT22;14939;43.596;1.320;2022-09-17T02:40:29;15.20;63.90
27506;DHT22;14939;43.596;1.320;2022-09-17T02:45:43;15.20;64.70
27506;DHT22;14939;43.596;1.320;2022-09-17T02:48:23;15.20;64.70
27506;DHT22;14939;43.596;1.320;2022-09-17T02:52:05;15.20;65.00
27506;DHT22;14939;43.596;1.320;2022-09-17T03:02:27;15.00;66.10
27506;DHT22;14939;43.596;1.320;2022-09-17T03:04:56;15.10;66.30
27506;DHT22;14939;43.596;1.320;2022-09-17T03:07:22;15.00;66.60
27506;DHT22;14939;43.596;1.320;2022-09-17T03:09:49;15.00;67.20
27506;DHT22;14939;43.596;1.320;2022-09-17T03:12:15;15.00;67.50
27506;DHT22;14939;43.596;1.320;2022-09-17T03:14:41;14.90;67.90
27506;DHT22;14939;43.596;1.320;2022-09-17T03:17:07;14.90;68.20
27506;DHT22;14939;43.596;1.320;2022-09-17T03:19:32;14.80;68.70
27506;DHT22;14939;43.596;1.320;2022-09-17T03:21:58;14.80;69.10
27506;DHT22;14939;43.596;1.320;2022-09-17T03:24:23;14.80;69.40
27506;DHT22;14939;43.596;1.320;2022-09-17T03:26:49;14.70;69.70
27506;DHT22;14939;43.596;1.320;2022-09-17T03:29:15;14.70;70.00
27506;DHT22;14939;43.596;1.320;2022-09-17T03:31:41;14.60;70.20
27506;DHT22;14939;43.596;1.320;2022-09-17T03:34:07;14.60;71.00
27506;DHT22;14939;43.596;1.320;2022-09-17T03:36:33;14.50;71.30
27506;DHT22;14939;43.596;1.320;2022-09-17T03:38:59;14.50;71.40
27506;DHT22;14939;43.596;1.320;2022-09-17T03:41:25;14.50;71.60
27506;DHT22;14939;43.596;1.320;2022-09-17T03:43:51;14.50;72.10
27506;DHT22;14939;43.596;1.320;2022-09-17T03:46:18;14.40;72.40
27506;DHT22;14939;43.596;1.320;2022-09-17T03:48:44;14.40;72.90
27506;DHT22;14939;43.596;1.320;2022-09-17T03:51:11;14.40;73.30
27506;DHT22;14939;43.596;1.320;2022-09-17T03:53:37;14.40;73.40
27506;DHT22;14939;43.596;1.320;2022-09-17T03:56:04;14.30;73.70
27506;DHT22;14939;43.596;1.320;2022-09-17T03:58:31;14.30;73.80
27506;DHT22;14939;43.596;1.320;2022-09-17T04:00:57;14.30;74.40
27506;DHT22;14939;43.596;1.320;2022-09-17T04:03:25;14.30;74.80
27506;DHT22;14939;43.596;1.320;2022-09-17T04:05:51;14.30;74.70
27506;DHT22;14939;43.596;1.320;2022-09-17T04:08:17;14.30;75.20
27506;DHT22;14939;43.596;1.320;2022-09-17T04:10:43;14.30;75.00
27506;DHT22;14939;43.596;1.320;2022-09-17T04:13:09;14.30;75.00
27506;DHT22;14939;43.596;1.320;2022-09-17T04:15:35;14.30;74.80
27506;DHT22;14939;43.596;1.320;2022-09-17T04:18:01;14.30;74.60
27506;DHT22;14939;43.596;1.320;2022-09-17T04:20:26;14.30;74.70
27506;DHT22;14939;43.596;1.320;2022-09-17T04:22:53;14.30;74.80
27506;DHT22;14939;43.596;1.320;2022-09-17T04:25:18;14.30;74.70
27506;DHT22;14939;43.596;1.320;2022-09-17T04:27:44;14.30;74.60
27506;DHT22;14939;43.596;1.320;2022-09-17T04:30:12;14.30;74.20
27506;DHT22;14939;43.596;1.320;2022-09-17T04:32:39;14.30;74.60
27506;DHT22;14939;43.596;1.320;2022-09-17T04:35:04;14.30;74.70
27506;DHT22;14939;43.596;1.320;2022-09-17T04:37:30;14.20;75.20
27506;DHT22;14939;43.596;1.320;2022-09-17T04:39:56;14.20;75.60
27506;DHT22;14939;43.596;1.320;2022-09-17T04:42:22;14.20;75.70
27506;DHT22;14939;43.596;1.320;2022-09-17T04:44:48;14.10;76.60
27506;DHT22;14939;43.596;1.320;2022-09-17T04:47:14;14.10;76.10
27506;DHT22;14939;43.596;1.320;2022-09-17T04:49:39;14.10;76.30
27506;DHT22;14939;43.596;1.320;2022-09-17T04:52:05;14.10;76.90
27506;DHT22;14939;43.596;1.320;2022-09-17T04:54:31;14.10;77.10
27506;DHT22;14939;43.596;1.320;2022-09-17T04:56:58;14.10;77.10
27506;DHT22;14939;43.596;1.320;2022-09-17T04:59:24;14.10;77.50
27506;DHT22;14939;43.596;1.320;2022-09-17T05:01:49;14.10;77.70
27506;DHT22;14939;43.596;1.320;2022-09-17T05:04:15;14.00;77.80
27506;DHT22;14939;43.596;1.320;2022-09-17T05:06:41;14.00;78.10
27506;DHT22;14939;43.596;1.320;2022-09-17T05:09:07;14.00;78.40
27506;DHT22;14939;43.596;1.320;2022-09-17T05:11:33;14.00;78.60
27506;DHT22;14939;43.596;1.320;2022-09-17T05:13:59;14.00;78.70
27506;DHT22;14939;43.596;1.320;2022-09-17T05:16:25;14.00;78.40
27506;DHT22;14939;43.596;1.320;2022-09-17T05:18:51;14.00;78.80
27506;DHT22;14939;43.596;1.320;2022-09-17T05:21:17;14.00;78.70
27506;DHT22;14939;43.596;1.320;2022-09-17T05:23:43;14.00;78.00
27506;DHT22;14939;43.596;1.320;2022-09-17T05:26:09;14.00;78.30
27506;DHT22;14939;43.596;1.320;2022-09-17T05:28:35;14.00;77.90
27506;DHT22;14939;43.596;1.320;2022-09-17T05:31:01;14.00;77.70
27506;DHT22;14939;43.596;1.320;2022-09-17T05:33:27;14.00;77.30
27506;DHT22;14939;43.596;1.320;2022-09-17T05:35:53;14.00;77.20
27506;DHT22;14939;43.596;1.320;2022-09-17T05:38:19;14.00;76.60
27506;DHT22;14939;43.596;1.320;2022-09-17T05:40:45;14.00;76.80
27506;DHT22;14939;43.596;1.320;2022-09-17T05:43:10;14.00;76.60
27506;DHT22;14939;43.596;1.320;2022-09-17T05:45:37;14.10;75.60
27506;DHT22;14939;43.596;1.320;2022-09-17T05:48:04;14.10;75.30
27506;DHT22;14939;43.596;1.320;2022-09-17T05:50:31;14.10;75.60
27506;DHT22;14939;43.596;1.320;2022-09-17T05:53:01;14.10;75.60
27506;DHT22;14939;43.596;1.320;2022-09-17T05:55:27;14.10;75.60
27506;DHT22;14939;43.596;1.320;2022-09-17T05:57:53;14.10;75.30
27506;DHT22;14939;43.596;1.320;2022-09-17T06:00:19;14.10;75.00
27506;DHT22;14939;43.596;1.320;2022-09-17T06:02:44;14.10;74.80
27506;DHT22;14939;43.596;1.320;2022-09-17T06:05:10;14.10;74.70
27506;DHT22;14939;43.596;1.320;2022-09-17T06:07:37;14.10;74.50
27506;DHT22;14939;43.596;1.320;2022-09-17T06:10:04;14.10;74.60
27506;DHT22;14939;43.596;1.320;2022-09-17T06:12:30;14.20;74.40
27506;DHT22;14939;43.596;1.320;2022-09-17T06:14:56;14.20;74.30
27506;DHT22;14939;43.596;1.320;2022-09-17T06:17:22;14.20;74.20
27506;DHT22;14939;43.596;1.320;2022-09-17T06:19:47;14.30;73.80
27506;DHT22;14939;43.596;1.320;2022-09-17T06:22:13;14.30;74.00
27506;DHT22;14939;43.596;1.320;2022-09-17T06:24:39;14.40;74.20
27506;DHT22;14939;43.596;1.320;2022-09-17T06:27:04;14.30;73.20
27506;DHT22;14939;43.596;1.320;2022-09-17T06:29:30;14.30;73.00
27506;DHT22;14939;43.596;1.320;2022-09-17T06:31:56;14.30;72.70
27506;DHT22;14939;43.596;1.320;2022-09-17T06:34:21;14.30;72.50
27506;DHT22;14939;43.596;1.320;2022-09-17T06:36:50;14.30;73.30
27506;DHT22;14939;43.596;1.320;2022-09-17T06:39:16;14.20;73.50
27506;DHT22;14939;43.596;1.320;2022-09-17T06:41:41;14.20;73.70
27506;DHT22;14939;43.596;1.320;2022-09-17T06:44:07;14.20;74.10
27506;DHT22;14939;43.596;1.320;2022-09-17T06:46:33;14.20;74.10
27506;DHT22;14939;43.596;1.320;2022-09-17T06:48:59;14.20;73.90
27506;DHT22;14939;43.596;1.320;2022-09-17T06:51:25;14.20;73.80
27506;DHT22;14939;43.596;1.320;2022-09-17T06:53:50;14.20;74.30
27506;DHT22;14939;43.596;1.320;2022-09-17T06:56:16;14.30;74.30
27506;DHT22;14939;43.596;1.320;2022-09-17T06:58:42;14.30;74.40
27506;DHT22;14939;43.596;1.320;2022-09-17T07:01:11;14.30;74.30
27506;DHT22;14939;43.596;1.320;2022-09-17T07:03:38;14.40;73.30
27506;DHT22;14939;43.596;1.320;2022-09-17T07:06:07;14.40;73.20
27506;DHT22;14939;43.596;1.320;2022-09-17T07:08:34;14.40;73.20
27506;DHT22;14939;43.596;1.320;2022-09-17T07:11:00;14.30;73.50
27506;DHT22;14939;43.596;1.320;2022-09-17T07:13:26;14.30;74.30
27506;DHT22;14939;43.596;1.320;2022-09-17T07:15:59;14.30;74.60
27506;DHT22;14939;43.596;1.320;2022-09-17T07:18:26;14.40;73.60
27506;DHT22;14939;43.596;1.320;2022-09-17T07:23:19;14.60;72.60
27506;DHT22;14939;43.596;1.320;2022-09-17T07:25:53;14.60;72.90
27506;DHT22;14939;43.596;1.320;2022-09-17T07:28:19;14.60;72.90
27506;DHT22;14939;43.596;1.320;2022-09-17T07:30:45;14.60;72.80
27506;DHT22;14939;43.596;1.320;2022-09-17T07:33:11;14.60;72.40
27506;DHT22;14939;43.596;1.320;2022-09-17T07:35:36;14.60;72.50
27506;DHT22;14939;43.596;1.320;2022-09-17T07:38:02;14.60;72.90
27506;DHT22;14939;43.596;1.320;2022-09-17T07:40:28;14.80;71.60
27506;DHT22;14939;43.596;1.320;2022-09-17T07:42:56;14.90;70.30
27506;DHT22;14939;43.596;1.320;2022-09-17T07:45:23;14.90;69.60
27506;DHT22;14939;43.596;1.320;2022-09-17T07:47:49;15.00;69.30
27506;DHT22;14939;43.596;1.320;2022-09-17T07:50:15;15.10;69.20
27506;DHT22;14939;43.596;1.320;2022-09-17T07:52:47;15.10;68.90
27506;DHT22;14939;43.596;1.320;2022-09-17T07:55:13;15.10;69.20
27506;DHT22;14939;43.596;1.320;2022-09-17T07:57:39;15.10;68.20
27506;DHT22;14939;43.596;1.320;2022-09-17T08:00:06;15.20;67.70
27506;DHT22;14939;43.596;1.320;2022-09-17T08:02:32;15.30;67.10
27506;DHT22;14939;43.596;1.320;2022-09-17T08:04:57;15.50;66.40
27506;DHT22;14939;43.596;1.320;2022-09-17T08:07:23;15.70;65.10
27506;DHT22;14939;43.596;1.320;2022-09-17T08:09:49;15.70;64.30
27506;DHT22;14939;43.596;1.320;2022-09-17T08:12:15;15.60;63.70
27506;DHT22;14939;43.596;1.320;2022-09-17T08:14:42;15.70;63.40
27506;DHT22;14939;43.596;1.320;2022-09-17T08:17:08;15.70;63.40
27506;DHT22;14939;43.596;1.320;2022-09-17T08:19:34;15.70;62.80
27506;DHT22;14939;43.596;1.320;2022-09-17T08:22:00;15.70;61.50
27506;DHT22;14939;43.596;1.320;2022-09-17T08:24:26;15.70;61.40
27506;DHT22;14939;43.596;1.320;2022-09-17T08:26:52;15.70;61.30
27506;DHT22;14939;43.596;1.320;2022-09-17T08:29:18;15.80;61.80
27506;DHT22;14939;43.596;1.320;2022-09-17T08:31:43;15.80;61.80
27506;DHT22;14939;43.596;1.320;2022-09-17T08:34:10;15.80;60.80
27506;DHT22;14939;43.596;1.320;2022-09-17T08:36:36;16.00;60.50
27506;DHT22;14939;43.596;1.320;2022-09-17T08:39:02;16.00;60.00
27506;DHT22;14939;43.596;1.320;2022-09-17T09:00:47;16.40;56.50
27506;DHT22;14939;43.596;1.320;2022-09-17T09:06:09;16.50;55.20
27506;DHT22;14939;43.596;1.320;2022-09-17T09:08:49;16.60;54.20
27506;DHT22;14939;43.596;1.320;2022-09-17T09:11:26;16.60;52.10
27506;DHT22;14939;43.596;1.320;2022-09-17T09:16:39;16.90;47.90
27506;DHT22;14939;43.596;1.320;2022-09-17T09:19:22;16.90;50.90
27506;DHT22;14939;43.596;1.320;2022-09-17T09:25:06;17.00;47.00
27506;DHT22;14939;43.596;1.320;2022-09-17T09:30:11;17.10;45.40
27506;DHT22;14939;43.596;1.320;2022-09-17T09:35:33;17.30;45.20
27506;DHT22;14939;43.596;1.320;2022-09-17T09:40:56;17.40;38.10
27506;DHT22;14939;43.596;1.320;2022-09-17T09:54:44;17.60;36.90
27506;DHT22;14939;43.596;1.320;2022-09-17T09:57:17;17.70;38.30
27506;DHT22;14939;43.596;1.320;2022-09-17T09:59:44;17.80;40.50
27506;DHT22;14939;43.596;1.320;2022-09-17T10:02:10;17.80;40.30
27506;DHT22;14939;43.596;1.320;2022-09-17T10:04:36;17.80;37.70
27506;DHT22;14939;43.596;1.320;2022-09-17T10:07:10;17.70;36.60
27506;DHT22;14939;43.596;1.320;2022-09-17T10:09:38;17.80;36.80
27506;DHT22;14939;43.596;1.320;2022-09-17T10:14:39;18.10;36.80
27506;DHT22;14939;43.596;1.320;2022-09-17T10:17:18;18.00;35.80
27506;DHT22;14939;43.596;1.320;2022-09-17T10:24:52;18.20;35.90
27506;DHT22;14939;43.596;1.320;2022-09-17T10:27:20;18.10;36.30
27506;DHT22;14939;43.596;1.320;2022-09-17T10:29:49;18.00;36.10
27506;DHT22;14939;43.596;1.320;2022-09-17T10:32:20;18.10;35.90
27506;DHT22;14939;43.596;1.320;2022-09-17T10:35:04;18.20;35.90
27506;DHT22;14939;43.596;1.320;2022-09-17T10:37:50;18.20;35.60
27506;DHT22;14939;43.596;1.320;2022-09-17T10:42:46;18.50;34.80
27506;DHT22;14939;43.596;1.320;2022-09-17T10:45:38;18.40;33.90
27506;DHT22;14939;43.596;1.320;2022-09-17T10:48:16;18.30;35.30
27506;DHT22;14939;43.596;1.320;2022-09-17T10:50:53;18.40;34.60
27506;DHT22;14939;43.596;1.320;2022-09-17T10:53:21;18.50;33.60
27506;DHT22;14939;43.596;1.320;2022-09-17T10:56:16;18.40;33.60
27506;DHT22;14939;43.596;1.320;2022-09-17T11:09:49;18.70;30.90
27506;DHT22;14939;43.596;1.320;2022-09-17T11:18:35;18.90;30.10
27506;DHT22;14939;43.596;1.320;2022-09-17T11:34:27;19.40;28.50
27506;DHT22;14939;43.596;1.320;2022-09-17T11:37:18;19.20;28.90
27506;DHT22;14939;43.596;1.320;2022-09-17T11:42:23;19.30;27.90
27506;DHT22;14939;43.596;1.320;2022-09-17T11:47:46;19.20;27.10
27506;DHT22;14939;43.596;1.320;2022-09-17T11:55:39;19.40;27.20
27506;DHT22;14939;43.596;1.320;2022-09-17T11:58:14;19.40;27.80
27506;DHT22;14939;43.596;1.320;2022-09-17T12:00:51;19.40;27.30
27506;DHT22;14939;43.596;1.320;2022-09-17T12:03:39;19.70;26.90
27506;DHT22;14939;43.596;1.320;2022-09-17T12:06:21;19.70;25.70
27506;DHT22;14939;43.596;1.320;2022-09-17T12:11:35;19.90;25.90
27506;DHT22;14939;43.596;1.320;2022-09-17T12:14:16;19.80;26.10
27506;DHT22;14939;43.596;1.320;2022-09-17T12:16:48;19.80;25.10
27506;DHT22;14939;43.596;1.320;2022-09-17T12:19:34;19.80;25.40
27506;DHT22;14939;43.596;1.320;2022-09-17T12:22:21;19.90;24.00
27506;DHT22;14939;43.596;1.320;2022-09-17T12:24:52;20.00;23.10
27506;DHT22;14939;43.596;1.320;2022-09-17T12:27:39;19.90;22.70
27506;DHT22;14939;43.596;1.320;2022-09-17T12:30:18;19.90;22.50
27506;DHT22;14939;43.596;1.320;2022-09-17T12:40:34;20.00;21.20
27506;DHT22;14939;43.596;1.320;2022-09-17T12:52:02;20.20;22.60
27506;DHT22;14939;43.596;1.320;2022-09-17T13:00:10;20.30;21.90
27506;DHT22;14939;43.596;1.320;2022-09-17T13:18:58;20.50;21.70
27506;DHT22;14939;43.596;1.320;2022-09-17T13:21:58;20.70;20.80
27506;DHT22;14939;43.596;1.320;2022-09-17T13:24:27;20.80;21.80
27506;DHT22;14939;43.596;1.320;2022-09-17T13:26:55;20.70;20.10
27506;DHT22;14939;43.596;1.320;2022-09-17T13:40:23;20.60;19.00
27506;DHT22;14939;43.596;1.320;2022-09-17T13:45:28;20.90;19.10
27506;DHT22;14939;43.596;1.320;2022-09-17T13:48:07;21.10;18.70
27506;DHT22;14939;43.596;1.320;2022-09-17T13:50:43;20.90;18.20
27506;DHT22;14939;43.596;1.320;2022-09-17T14:21:54;20.90;16.90
27506;DHT22;14939;43.596;1.320;2022-09-17T14:24:44;21.10;17.20
27506;DHT22;14939;43.596;1.320;2022-09-17T14:30:18;21.00;17.10
27506;DHT22;14939;43.596;1.320;2022-09-17T14:37:59;21.40;15.70
27506;DHT22;14939;43.596;1.320;2022-09-17T14:40:27;21.60;16.00
27506;DHT22;14939;43.596;1.320;2022-09-17T14:42:55;21.70;15.50
27506;DHT22;14939;43.596;1.320;2022-09-17T14:45:27;21.80;15.00
27506;DHT22;14939;43.596;1.320;2022-09-17T14:50:50;22.20;14.20
27506;DHT22;14939;43.596;1.320;2022-09-17T14:53:18;22.30;14.70
27506;DHT22;14939;43.596;1.320;2022-09-17T14:55:49;22.40;14.20
27506;DHT22;14939;43.596;1.320;2022-09-17T14:58:47;22.80;13.80
27506;DHT22;14939;43.596;1.320;2022-09-17T15:01:28;22.90;13.50
27506;DHT22;14939;43.596;1.320;2022-09-17T15:06:39;23.80;11.00
27506;DHT22;14939;43.596;1.320;2022-09-17T15:09:05;24.70;12.00
27506;DHT22;14939;43.596;1.320;2022-09-17T15:11:35;25.40;10.80
27506;DHT22;14939;43.596;1.320;2022-09-17T15:14:06;26.00;10.60
27506;DHT22;14939;43.596;1.320;2022-09-17T15:16:36;26.30;10.00
27506;DHT22;14939;43.596;1.320;2022-09-17T15:19:03;26.80;9.50
27506;DHT22;14939;43.596;1.320;2022-09-17T15:21:43;26.70;7.90
27506;DHT22;14939;43.596;1.320;2022-09-17T15:26:44;26.60;7.30
27506;DHT22;14939;43.596;1.320;2022-09-17T15:29:14;26.70;6.40
27506;DHT22;14939;43.596;1.320;2022-09-17T15:31:40;27.00;5.50
27506;DHT22;14939;43.596;1.320;2022-09-17T15:34:09;27.20;5.50
27506;DHT22;14939;43.596;1.320;2022-09-17T15:36:36;27.40;5.30
27506;DHT22;14939;43.596;1.320;2022-09-17T15:39:28;28.60;4.80
27506;DHT22;14939;43.596;1.320;2022-09-17T15:41:56;28.20;4.20
27506;DHT22;14939;43.596;1.320;2022-09-17T15:44:23;28.70;3.70
27506;DHT22;14939;43.596;1.320;2022-09-17T15:46:51;27.80;5.30
27506;DHT22;14939;43.596;1.320;2022-09-17T15:49:29;27.40;5.10
27506;DHT22;14939;43.596;1.320;2022-09-17T15:52:17;26.60;4.90
27506;DHT22;14939;43.596;1.320;2022-09-17T15:54:40;26.10;5.40
27506;DHT22;14939;43.596;1.320;2022-09-17T15:57:13;26.50;5.20
27506;DHT22;14939;43.596;1.320;2022-09-17T15:59:39;26.40;5.60
27506;DHT22;14939;43.596;1.320;2022-09-17T16:02:24;25.70;5.90
27506;DHT22;14939;43.596;1.320;2022-09-17T16:07:39;25.30;6.40
27506;DHT22;14939;43.596;1.320;2022-09-17T16:10:05;25.30;6.80
27506;DHT22;14939;43.596;1.320;2022-09-17T16:12:32;25.30;6.80
27506;DHT22;14939;43.596;1.320;2022-09-17T16:14:58;25.30;6.50
27506;DHT22;14939;43.596;1.320;2022-09-17T16:20:04;25.50;6.80
27506;DHT22;14939;43.596;1.320;2022-09-17T16:22:30;25.60;6.80
27506;DHT22;14939;43.596;1.320;2022-09-17T16:24:56;26.10;6.10
27506;DHT22;14939;43.596;1.320;2022-09-17T16:27:25;26.50;6.40
27506;DHT22;14939;43.596;1.320;2022-09-17T16:30:04;26.50;6.40
27506;DHT22;14939;43.596;1.320;2022-09-17T16:32:30;26.30;5.30
27506;DHT22;14939;43.596;1.320;2022-09-17T16:34:56;26.20;5.20
27506;DHT22;14939;43.596;1.320;2022-09-17T16:37:22;26.20;5.30
27506;DHT22;14939;43.596;1.320;2022-09-17T16:39:47;26.40;5.80
27506;DHT22;14939;43.596;1.320;2022-09-17T16:42:14;26.50;5.30
27506;DHT22;14939;43.596;1.320;2022-09-17T16:44:39;26.80;4.60
27506;DHT22;14939;43.596;1.320;2022-09-17T16:47:05;26.30;4.90
27506;DHT22;14939;43.596;1.320;2022-09-17T16:49:30;25.90;5.00
27506;DHT22;14939;43.596;1.320;2022-09-17T16:51:56;25.50;5.50
27506;DHT22;14939;43.596;1.320;2022-09-17T16:54:22;25.40;6.00
27506;DHT22;14939;43.596;1.320;2022-09-17T16:56:47;25.00;6.70
27506;DHT22;14939;43.596;1.320;2022-09-17T16:59:13;25.00;6.40
27506;DHT22;14939;43.596;1.320;2022-09-17T17:01:39;25.00;6.90
27506;DHT22;14939;43.596;1.320;2022-09-17T17:04:04;25.10;7.00
27506;DHT22;14939;43.596;1.320;2022-09-17T17:06:30;25.20;6.80
27506;DHT22;14939;43.596;1.320;2022-09-17T17:08:57;24.80;7.10
27506;DHT22;14939;43.596;1.320;2022-09-17T17:11:25;23.90;8.20
27506;DHT22;14939;43.596;1.320;2022-09-17T17:13:53;23.00;9.20
27506;DHT22;14939;43.596;1.320;2022-09-17T17:16:21;22.50;10.00
27506;DHT22;14939;43.596;1.320;2022-09-17T17:18:48;22.50;9.80
27506;DHT22;14939;43.596;1.320;2022-09-17T17:21:15;22.10;10.00
27506;DHT22;14939;43.596;1.320;2022-09-17T17:23:41;21.80;10.40
27506;DHT22;14939;43.596;1.320;2022-09-17T17:26:12;21.70;10.70
27506;DHT22;14939;43.596;1.320;2022-09-17T17:28:38;21.50;11.20
27506;DHT22;14939;43.596;1.320;2022-09-17T17:31:04;21.20;11.70
27506;DHT22;14939;43.596;1.320;2022-09-17T17:33:30;21.10;12.10
27506;DHT22;14939;43.596;1.320;2022-09-17T17:36:03;20.90;12.60
27506;DHT22;14939;43.596;1.320;2022-09-17T17:38:29;20.60;13.10
27506;DHT22;14939;43.596;1.320;2022-09-17T17:43:27;20.30;14.10
27506;DHT22;14939;43.596;1.320;2022-09-17T17:45:53;20.10;14.50
27506;DHT22;14939;43.596;1.320;2022-09-17T17:48:18;20.00;14.90
27506;DHT22;14939;43.596;1.320;2022-09-17T17:50:44;19.90;15.30
27506;DHT22;14939;43.596;1.320;2022-09-17T17:53:10;19.80;15.50
27506;DHT22;14939;43.596;1.320;2022-09-17T17:55:35;19.60;16.00
27506;DHT22;14939;43.596;1.320;2022-09-17T17:58:02;19.40;16.50
27506;DHT22;14939;43.596;1.320;2022-09-17T18:00:27;19.30;16.80
27506;DHT22;14939;43.596;1.320;2022-09-17T18:02:53;19.20;17.00
27506;DHT22;14939;43.596;1.320;2022-09-17T18:05:19;19.10;17.30
27506;DHT22;14939;43.596;1.320;2022-09-17T18:07:45;19.00;17.50
27506;DHT22;14939;43.596;1.320;2022-09-17T18:10:11;18.90;17.70
27506;DHT22;14939;43.596;1.320;2022-09-17T18:12:37;18.80;18.00
27506;DHT22;14939;43.596;1.320;2022-09-17T18:15:05;18.70;18.30
27506;DHT22;14939;43.596;1.320;2022-09-17T18:17:31;18.60;18.50
27506;DHT22;14939;43.596;1.320;2022-09-17T18:19:57;18.60;18.80
27506;DHT22;14939;43.596;1.320;2022-09-17T18:22:22;18.50;18.70
27506;DHT22;14939;43.596;1.320;2022-09-17T18:24:48;18.50;19.00
27506;DHT22;14939;43.596;1.320;2022-09-17T18:27:14;18.40;18.90
27506;DHT22;14939;43.596;1.320;2022-09-17T18:29:39;18.30;19.00
27506;DHT22;14939;43.596;1.320;2022-09-17T18:32:05;18.20;19.30
27506;DHT22;14939;43.596;1.320;2022-09-17T18:34:31;18.10;19.60
27506;DHT22;14939;43.596;1.320;2022-09-17T18:36:56;18.10;19.40
27506;DHT22;14939;43.596;1.320;2022-09-17T18:39:22;18.00;19.50
27506;DHT22;14939;43.596;1.320;2022-09-17T18:41:48;18.00;19.60
27506;DHT22;14939;43.596;1.320;2022-09-17T18:44:14;18.00;19.40
27506;DHT22;14939;43.596;1.320;2022-09-17T18:46:40;17.90;19.50
27506;DHT22;14939;43.596;1.320;2022-09-17T18:49:07;17.90;19.50
27506;DHT22;14939;43.596;1.320;2022-09-17T18:51:32;17.90;19.00
27506;DHT22;14939;43.596;1.320;2022-09-17T18:53:58;17.90;19.10
27506;DHT22;14939;43.596;1.320;2022-09-17T18:56:30;17.80;19.10
27506;DHT22;14939;43.596;1.320;2022-09-17T18:58:58;17.70;19.20
27506;DHT22;14939;43.596;1.320;2022-09-17T19:01:27;17.70;19.10
27506;DHT22;14939;43.596;1.320;2022-09-17T19:03:54;17.60;19.20
27506;DHT22;14939;43.596;1.320;2022-09-17T19:06:20;17.60;19.30
27506;DHT22;14939;43.596;1.320;2022-09-17T19:08:46;17.50;19.30
27506;DHT22;14939;43.596;1.320;2022-09-17T19:11:12;17.50;19.40
27506;DHT22;14939;43.596;1.320;2022-09-17T19:13:43;17.40;19.30
27506;DHT22;14939;43.596;1.320;2022-09-17T19:16:10;17.40;18.80
27506;DHT22;14939;43.596;1.320;2022-09-17T19:18:36;17.40;19.20
27506;DHT22;14939;43.596;1.320;2022-09-17T19:21:20;17.40;19.00
27506;DHT22;14939;43.596;1.320;2022-09-17T19:23:50;17.40;19.10
27506;DHT22;14939;43.596;1.320;2022-09-17T19:26:21;17.30;19.20
27506;DHT22;14939;43.596;1.320;2022-09-17T19:28:50;17.20;19.40
27506;DHT22;14939;43.596;1.320;2022-09-17T19:31:16;17.20;19.30
27506;DHT22;14939;43.596;1.320;2022-09-17T19:33:43;17.20;19.40
27506;DHT22;14939;43.596;1.320;2022-09-17T19:36:14;17.10;19.70
27506;DHT22;14939;43.596;1.320;2022-09-17T19:38:40;17.00;19.80
27506;DHT22;14939;43.596;1.320;2022-09-17T19:41:15;17.00;20.10
27506;DHT22;14939;43.596;1.320;2022-09-17T19:43:41;17.00;19.90
27506;DHT22;14939;43.596;1.320;2022-09-17T19:46:18;16.90;20.10